createdAt,value
2024-02-23T00:02:24.956Z,74.16
2024-02-23T00:07:28.690Z,74.01
2024-02-23T00:12:30.512Z,73.68
2024-02-23T00:17:32.705Z,73.47
2024-02-23T00:22:35.404Z,73.39
2024-02-23T00:27:37.828Z,73.45
2024-02-23T00:32:39.933Z,73.60
2024-02-23T00:37:41.977Z,73.54
2024-02-23T00:42:43.789Z,73.71
2024-02-23T00:47:48.200Z,73.90
2024-02-23T00:52:50.202Z,74.06
2024-02-23T00:57:52.274Z,74.37
2024-02-23T01:02:54.309Z,73.81
2024-02-23T01:07:56.346Z,74.28
2024-02-23T01:12:58.842Z,74.39
2024-02-23T01:18:00.858Z,74.61
2024-02-23T01:23:03.136Z,74.53
2024-02-23T01:28:05.510Z,74.93
2024-02-23T01:33:07.576Z,74.68
2024-02-23T01:38:09.511Z,74.67
2024-02-23T01:43:11.534Z,74.99
2024-02-23T01:48:14.037Z,75.17
2024-02-23T01:53:16.971Z,75.14
2024-02-23T01:58:19.316Z,75.13
2024-02-23T02:03:21.291Z,75.00
2024-02-23T02:08:23.503Z,74.87
2024-02-23T02:13:25.395Z,74.70
2024-02-23T02:18:27.310Z,74.66
2024-02-23T02:23:29.248Z,75.05
2024-02-23T02:28:31.480Z,75.11
2024-02-23T02:33:33.463Z,75.76
2024-02-23T02:38:35.655Z,76.38
2024-02-23T02:43:37.625Z,76.69
2024-02-23T02:48:39.738Z,77.52
2024-02-23T02:53:41.780Z,78.37
2024-02-23T02:58:43.691Z,79.25
2024-02-23T03:03:45.581Z,79.98
2024-02-23T03:08:47.479Z,80.71
2024-02-23T03:13:49.293Z,81.70
2024-02-23T03:18:51.558Z,82.41
2024-02-23T03:23:53.397Z,83.24
2024-02-23T03:28:55.339Z,84.00
2024-02-23T03:33:57.674Z,84.62
2024-02-23T03:38:59.571Z,84.89
2024-02-23T03:44:01.608Z,85.29
2024-02-23T03:49:03.413Z,85.88
2024-02-23T03:54:05.432Z,86.29
2024-02-23T03:59:07.412Z,86.18
2024-02-23T04:04:09.483Z,86.60
2024-02-23T04:09:11.809Z,86.95
2024-02-23T04:14:13.669Z,87.22
2024-02-23T04:19:15.757Z,87.47
2024-02-23T04:24:17.589Z,88.14
2024-02-23T04:29:19.502Z,88.43
2024-02-23T04:34:21.487Z,88.79
2024-02-23T04:39:23.810Z,88.96
2024-02-23T04:44:25.770Z,89.52
2024-02-23T04:49:27.733Z,89.76
2024-02-23T04:54:29.793Z,89.86
2024-02-23T04:59:33.629Z,90.23
2024-02-23T05:04:35.593Z,90.09
2024-02-23T05:09:37.497Z,90.65
2024-02-23T05:14:39.540Z,90.81
2024-02-23T05:19:41.695Z,90.72
2024-02-23T05:24:45.562Z,90.78
2024-02-23T05:29:47.524Z,91.12
2024-02-23T05:34:52.838Z,91.24
2024-02-23T05:39:55.184Z,91.38
2024-02-23T05:44:57.500Z,91.41
2024-02-23T05:49:59.476Z,91.92
2024-02-23T05:55:01.802Z,92.15
2024-02-23T06:00:04.553Z,92.31
2024-02-23T06:05:14.196Z,92.87
2024-02-23T06:10:16.313Z,93.14
2024-02-23T06:15:18.220Z,93.58
2024-02-23T06:20:21.344Z,93.88
2024-02-23T06:25:23.387Z,94.11
2024-02-23T06:30:25.120Z,94.48
2024-02-23T06:35:27.164Z,95.08
2024-02-23T06:40:37.660Z,95.46
2024-02-23T06:45:47.910Z,95.35
2024-02-23T06:50:50.308Z,95.47
2024-02-23T06:55:52.332Z,95.80
2024-02-23T07:00:54.484Z,95.58
2024-02-23T07:05:56.889Z,96.28
2024-02-23T07:10:59.144Z,96.56
2024-02-23T07:16:02.003Z,96.63
2024-02-23T07:21:04.008Z,96.67
2024-02-23T07:26:05.865Z,96.81
2024-02-23T07:31:07.749Z,96.82
2024-02-23T07:36:15.674Z,96.85
2024-02-23T07:41:20.651Z,96.74
2024-02-23T07:46:26.333Z,96.71
2024-02-23T07:51:29.832Z,96.73
2024-02-23T07:56:31.890Z,96.62
2024-02-23T08:01:33.810Z,96.36
2024-02-23T08:06:35.609Z,96.93
2024-02-23T08:11:37.812Z,96.33
2024-02-23T08:16:39.984Z,96.28
2024-02-23T08:21:42.369Z,96.03
2024-02-23T08:26:44.239Z,95.74
2024-02-23T08:31:46.347Z,95.72
2024-02-23T08:36:48.058Z,95.56
2024-02-23T08:41:50.214Z,95.32
2024-02-23T08:46:52.373Z,95.41
2024-02-23T08:51:54.390Z,95.03
2024-02-23T08:56:56.376Z,95.03
2024-02-23T09:01:58.263Z,95.02
2024-02-23T09:07:00.230Z,94.58
2024-02-23T09:12:02.273Z,94.38
2024-02-23T09:17:04.652Z,93.75
2024-02-23T09:22:06.569Z,93.28
2024-02-23T09:27:08.827Z,92.48
2024-02-23T09:32:11.083Z,91.28
2024-02-23T09:37:13.006Z,89.77
2024-02-23T09:42:15.910Z,88.35
2024-02-23T09:47:18.600Z,87.41
2024-02-23T09:52:22.583Z,87.32
2024-02-23T09:57:25.316Z,87.42
2024-02-23T10:02:27.158Z,87.24
2024-02-23T10:07:29.109Z,87.17
2024-02-23T10:12:31.079Z,87.16
2024-02-23T10:17:36.356Z,87.01
2024-02-23T10:22:39.606Z,87.16
2024-02-23T10:27:41.987Z,87.70
2024-02-23T10:32:44.176Z,87.95
2024-02-23T10:37:51.256Z,87.71
2024-02-23T10:42:58.083Z,87.77
2024-02-23T10:48:00.863Z,87.55
2024-02-23T10:53:10.124Z,87.87
2024-02-23T10:58:14.366Z,88.36
2024-02-23T11:03:17.124Z,88.47
2024-02-23T11:08:20.935Z,88.92
2024-02-23T11:13:34.880Z,89.25
2024-02-23T11:18:38.004Z,89.60
2024-02-23T11:23:44.098Z,89.58
2024-02-23T11:28:54.986Z,89.49
2024-02-23T11:33:58.190Z,89.83
2024-02-23T11:39:01.568Z,90.49
2024-02-23T11:44:04.774Z,90.27
2024-02-23T11:49:07.189Z,90.01
2024-02-23T11:54:10.015Z,90.02
2024-02-23T11:59:12.017Z,88.85
2024-02-23T12:04:13.845Z,88.53
2024-02-23T12:09:16.822Z,88.44
2024-02-23T12:14:19.161Z,88.44
2024-02-23T12:19:21.449Z,88.60
2024-02-23T12:24:24.524Z,88.05
2024-02-23T12:29:26.827Z,87.67
2024-02-23T12:34:30.110Z,87.58
2024-02-23T12:39:33.301Z,87.26
2024-02-23T12:44:36.275Z,86.61
2024-02-23T12:49:39.717Z,86.64
2024-02-23T12:54:43.188Z,86.69
2024-02-23T12:59:45.254Z,86.41
2024-02-23T13:04:51.824Z,86.21
2024-02-23T13:09:53.789Z,85.68
2024-02-23T13:14:55.581Z,86.06
2024-02-23T13:20:05.720Z,86.29
2024-02-23T13:25:13.233Z,86.19
2024-02-23T13:30:16.687Z,86.37
2024-02-23T13:35:18.791Z,86.27
2024-02-23T13:40:20.933Z,86.21
2024-02-23T13:45:24.703Z,87.11
2024-02-23T13:50:27.476Z,87.59
2024-02-23T13:55:29.961Z,87.99
2024-02-23T14:00:31.981Z,88.86
2024-02-23T14:05:34.048Z,89.47
2024-02-23T14:10:36.137Z,89.68
2024-02-23T14:15:38.004Z,90.05
2024-02-23T14:20:41.834Z,90.30
2024-02-23T14:25:43.705Z,89.82
2024-02-23T14:30:45.633Z,89.97
2024-02-23T14:35:48.053Z,90.44
2024-02-23T14:40:50.422Z,89.93
2024-02-23T14:45:53.879Z,90.01
2024-02-23T14:50:56.411Z,90.39
2024-02-23T14:55:58.461Z,91.18
2024-02-23T15:01:00.671Z,90.92
2024-02-23T15:06:03.200Z,90.39
2024-02-23T15:11:06.566Z,90.50
2024-02-23T15:16:08.630Z,91.37
2024-02-23T15:21:10.594Z,91.88
2024-02-23T15:26:12.689Z,91.86
2024-02-23T15:31:15.016Z,92.34
2024-02-23T15:36:17.128Z,92.45
2024-02-23T15:41:19.002Z,92.42
2024-02-23T15:46:20.866Z,92.60
2024-02-23T15:51:33.794Z,92.82
2024-02-23T15:56:44.992Z,92.83
2024-02-23T16:01:47.101Z,93.07
2024-02-23T16:06:48.918Z,93.08
2024-02-23T16:11:51.297Z,93.13
2024-02-23T16:16:54.695Z,93.67
2024-02-23T16:21:56.939Z,94.34
2024-02-23T16:26:58.982Z,94.90
2024-02-23T16:32:01.146Z,94.41
2024-02-23T16:37:03.478Z,95.08
2024-02-23T16:42:06.751Z,95.54
2024-02-23T16:47:08.610Z,95.26
2024-02-23T16:52:10.587Z,95.33
2024-02-23T16:57:12.541Z,95.39
2024-02-23T17:02:14.483Z,95.68
2024-02-23T17:07:16.464Z,95.50
2024-02-23T17:12:21.879Z,95.46
2024-02-23T17:17:24.008Z,95.82
2024-02-23T17:22:27.940Z,95.83
2024-02-23T17:27:29.902Z,95.97
2024-02-23T17:32:31.946Z,95.65
2024-02-23T17:37:34.105Z,95.02
2024-02-23T17:42:36.064Z,95.64
2024-02-23T17:47:38.702Z,95.34
2024-02-23T17:52:40.563Z,95.47
2024-02-23T17:57:42.540Z,95.40
2024-02-23T18:02:44.698Z,95.51
2024-02-23T18:07:46.755Z,95.80
2024-02-23T18:12:48.733Z,96.05
2024-02-23T18:17:52.632Z,96.19
2024-02-23T18:22:54.789Z,96.07
2024-02-23T18:27:56.817Z,96.26
2024-02-23T18:32:58.943Z,96.77
2024-02-23T18:38:01.307Z,96.63
2024-02-23T18:43:05.037Z,96.49
2024-02-23T18:48:07.872Z,96.55
2024-02-23T18:53:09.875Z,96.62
2024-02-23T18:58:13.419Z,96.39
2024-02-23T19:03:15.277Z,96.38
2024-02-23T19:08:17.266Z,96.38
2024-02-23T19:13:19.211Z,96.13
2024-02-23T19:18:21.849Z,96.12
2024-02-23T19:23:23.957Z,95.95
2024-02-23T19:28:25.901Z,95.89
2024-02-23T19:33:27.734Z,95.57
2024-02-23T19:38:29.647Z,95.47
2024-02-23T19:43:31.553Z,95.70
2024-02-23T19:48:33.492Z,96.22
2024-02-23T19:53:35.775Z,96.29
2024-02-23T19:58:37.801Z,96.28
2024-02-23T20:03:39.734Z,96.29
2024-02-23T20:08:41.854Z,96.13
2024-02-23T20:13:44.038Z,96.27
2024-02-23T20:18:46.184Z,96.13
2024-02-23T20:23:48.262Z,96.36
2024-02-23T20:28:50.191Z,96.39
2024-02-23T20:33:52.181Z,96.72
2024-02-23T20:38:54.372Z,96.55
2024-02-23T20:43:59.089Z,96.67
2024-02-23T20:49:02.657Z,96.92
2024-02-23T20:54:05.390Z,97.12
2024-02-23T20:59:07.317Z,97.03
2024-02-23T21:04:09.345Z,96.95
2024-02-23T21:09:13.015Z,97.33
2024-02-23T21:14:16.166Z,96.93
2024-02-23T21:19:18.050Z,96.76
2024-02-23T21:24:19.903Z,96.83
2024-02-23T21:29:22.074Z,96.58
2024-02-23T21:34:24.164Z,96.32
2024-02-23T21:39:26.300Z,95.96
2024-02-23T21:44:28.288Z,95.64
2024-02-23T21:49:30.209Z,95.91
2024-02-23T21:54:32.959Z,95.81
2024-02-23T21:59:34.978Z,95.47
2024-02-23T22:04:39.731Z,95.47
2024-02-23T22:09:46.083Z,95.23
2024-02-23T22:14:48.119Z,95.08
2024-02-23T22:19:50.156Z,94.86
2024-02-23T22:24:52.252Z,94.95
2024-02-23T22:29:54.276Z,94.87
2024-02-23T22:34:56.365Z,94.17
2024-02-23T22:39:58.423Z,94.13
2024-02-23T22:45:00.484Z,93.54
2024-02-23T22:50:03.463Z,93.76
2024-02-23T22:55:06.228Z,93.45
2024-02-23T23:00:10.791Z,93.13
2024-02-23T23:05:13.013Z,92.94
2024-02-23T23:10:14.956Z,92.72
2024-02-23T23:15:16.948Z,92.73
2024-02-23T23:20:20.674Z,92.36
2024-02-23T23:25:22.708Z,92.08
2024-02-23T23:30:24.644Z,91.74
2024-02-23T23:35:26.742Z,91.33
2024-02-23T23:40:28.631Z,90.85
2024-02-23T23:45:30.796Z,90.65
2024-02-23T23:50:32.862Z,90.35
2024-02-23T23:55:35.101Z,90.27
